Urb Mendoza, Puerto Rico
Current Conditions -  °F | °C
As of 4:30 AM on Sunday 23 Nov 2014 (Local Time) from TJBQ Reporting Station
Clear Clear  
Wind Chill: 75°   Ceiling: Unl
Heat Index: 75°   Visibility: 10mi
Dew Point: 70°   Wind: 8mph
Humidity: 83%   Direction: 110°ESE
Pressure: 29.99"   Gusts: NA
Location:  18.203°N, 67.14°W
Report Text: TJBQ 230830Z 11007KT 10SM SKC 24/21 A2999 RMK RWY 08 ATIS B
Loading
Personal Weather Stations






























Interactive Weather Map New forecast layout! Learn more

10-Day Weather Forecast

Advertisements
Track Severe Weather on mobile